< < Back
Terminal Aerodrome Forecast


Current Version              Previous Versions:   1  2  3  4  5  6  7  8  9  

Terminal Aerodrome Forecast

290
FTUS42 KFFC 270531
TAFATL
TAF
KATL 270531Z 2706/2812 VRB03KT P6SM BKN005
     FM270900 VRB03KT 3SM BR BKN004
     FM271500 17008KT P6SM VCSH BKN015
     FM272000 24007KT 6SM -SHRA BR BKN025 PROB30 2720/2724 3SM -TSRA
      BR BKN012CB
     FM280000 20005KT P6SM VCSH BKN040
     FM280500 VRB03KT P6SM BKN030=

Latest METAR

529
SAUS70 KWBC 270700 RRH
MTRATL
METAR KATL 270652Z COR 00000KT 7SM OVC004 19/18 A3020 RMK AO2 SLP218
T01890178


USA.gov is the U.S. government's official web portal to all federal, state and local government web resources and services.